sensor_id;sensor_type;location;lat;lon;timestamp;pressure;altitude;pressure_sealevel;temperature;humidity
51123;BME280;37162;41.724;13.346;2022-07-19T00:00:42;97031.97;;;24.95;59.98
51123;BME280;37162;41.724;13.346;2022-07-19T00:03:13;97019.75;;;24.87;59.61
51123;BME280;37162;41.724;13.346;2022-07-19T00:05:38;97026.53;;;24.95;59.89
51123;BME280;37162;41.724;13.346;2022-07-19T00:08:04;97030.06;;;24.95;59.94
51123;BME280;37162;41.724;13.346;2022-07-19T00:10:29;97024.63;;;24.95;59.83
51123;BME280;37162;41.724;13.346;2022-07-19T00:12:55;97024.63;;;24.95;59.88
51123;BME280;37162;41.724;13.346;2022-07-19T00:15:20;97024.63;;;24.95;59.86
51123;BME280;37162;41.724;13.346;2022-07-19T00:17:47;97023.00;;;24.94;59.80
51123;BME280;37162;41.724;13.346;2022-07-19T00:20:15;97023.00;;;24.94;59.75
51123;BME280;37162;41.724;13.346;2022-07-19T00:22:41;97016.75;;;24.94;59.45
51123;BME280;37162;41.724;13.346;2022-07-19T00:25:07;96996.69;;;24.85;59.30
51123;BME280;37162;41.724;13.346;2022-07-19T00:27:33;97002.63;;;24.87;59.41
51123;BME280;37162;41.724;13.346;2022-07-19T00:29:59;97013.19;;;24.93;59.41
51123;BME280;37162;41.724;13.346;2022-07-19T00:32:25;97012.38;;;24.93;59.48
51123;BME280;37162;41.724;13.346;2022-07-19T00:34:50;96999.59;;;24.93;59.65
51123;BME280;37162;41.724;13.346;2022-07-19T00:37:16;97013.19;;;24.93;59.66
51123;BME280;37162;41.724;13.346;2022-07-19T00:39:41;97003.16;;;24.89;59.59
51123;BME280;37162;41.724;13.346;2022-07-19T00:42:07;97009.41;;;24.94;59.48
51123;BME280;37162;41.724;13.346;2022-07-19T00:44:32;97000.72;;;24.87;59.47
51123;BME280;37162;41.724;13.346;2022-07-19T00:46:58;97003.44;;;24.92;59.50
51123;BME280;37162;41.724;13.346;2022-07-19T00:49:24;96991.47;;;24.88;59.57
51123;BME280;37162;41.724;13.346;2022-07-19T00:51:50;97002.31;;;24.93;59.26
51123;BME280;37162;41.724;13.346;2022-07-19T00:54:19;97007.75;;;24.93;59.53
51123;BME280;37162;41.724;13.346;2022-07-19T00:56:48;97006.16;;;24.92;59.69
51123;BME280;37162;41.724;13.346;2022-07-19T00:59:14;97008.06;;;24.92;59.54
51123;BME280;37162;41.724;13.346;2022-07-19T01:01:40;97002.09;;;24.90;59.35
51123;BME280;37162;41.724;13.346;2022-07-19T01:04:06;97005.34;;;24.92;59.63
51123;BME280;37162;41.724;13.346;2022-07-19T01:06:31;97002.34;;;24.88;59.50
51123;BME280;37162;41.724;13.346;2022-07-19T01:08:57;97009.66;;;24.93;59.62
51123;BME280;37162;41.724;13.346;2022-07-19T01:11:22;96992.88;;;24.81;59.50
51123;BME280;37162;41.724;13.346;2022-07-19T01:13:48;96989.38;;;24.80;58.87
51123;BME280;37162;41.724;13.346;2022-07-19T01:16:14;97003.44;;;24.87;59.38
51123;BME280;37162;41.724;13.346;2022-07-19T01:18:40;97009.97;;;24.91;58.91
51123;BME280;37162;41.724;13.346;2022-07-19T01:21:07;97011.06;;;24.90;59.10
51123;BME280;37162;41.724;13.346;2022-07-19T01:23:33;97008.34;;;24.90;58.91
51123;BME280;37162;41.724;13.346;2022-07-19T01:25:58;97020.31;;;24.89;58.73
51123;BME280;37162;41.724;13.346;2022-07-19T01:28:24;97012.41;;;24.88;58.45
51123;BME280;37162;41.724;13.346;2022-07-19T01:30:49;97012.16;;;24.89;58.72
51123;BME280;37162;41.724;13.346;2022-07-19T01:33:16;97006.72;;;24.89;59.09
51123;BME280;37162;41.724;13.346;2022-07-19T01:35:42;97002.91;;;24.90;59.39
51123;BME280;37162;41.724;13.346;2022-07-19T01:38:07;97005.88;;;24.89;59.34
51123;BME280;37162;41.724;13.346;2022-07-19T01:40:33;97003.16;;;24.89;59.40
51123;BME280;37162;41.724;13.346;2022-07-19T01:42:58;97007.78;;;24.88;59.08
51123;BME280;37162;41.724;13.346;2022-07-19T01:45:24;97006.16;;;24.87;59.05
51123;BME280;37162;41.724;13.346;2022-07-19T01:47:50;96998.00;;;24.87;58.58
51123;BME280;37162;41.724;13.346;2022-07-19T01:50:17;96998.81;;;24.88;59.11
51123;BME280;37162;41.724;13.346;2022-07-19T01:52:43;97001.84;;;24.86;58.52
51123;BME280;37162;41.724;13.346;2022-07-19T01:55:09;96999.91;;;24.87;58.82
51123;BME280;37162;41.724;13.346;2022-07-19T01:57:34;96990.97;;;24.81;58.54
51123;BME280;37162;41.724;13.346;2022-07-19T02:00:00;96989.34;;;24.85;58.75
51123;BME280;37162;41.724;13.346;2022-07-19T02:02:26;96977.97;;;24.73;58.70
51123;BME280;37162;41.724;13.346;2022-07-19T02:04:51;96985.25;;;24.83;59.09
51123;BME280;37162;41.724;13.346;2022-07-19T02:07:17;96991.50;;;24.83;59.01
51123;BME280;37162;41.724;13.346;2022-07-19T02:09:42;96983.63;;;24.82;59.03
51123;BME280;37162;41.724;13.346;2022-07-19T02:12:08;96992.88;;;24.86;59.01
51123;BME280;37162;41.724;13.346;2022-07-19T02:14:33;96979.31;;;24.81;58.92
51123;BME280;37162;41.724;13.346;2022-07-19T02:16:59;96983.91;;;24.85;58.66
51123;BME280;37162;41.724;13.346;2022-07-19T02:19:24;96979.56;;;24.84;58.69
51123;BME280;37162;41.724;13.346;2022-07-19T02:21:50;96982.81;;;24.81;58.54
51123;BME280;37162;41.724;13.346;2022-07-19T02:24:15;96987.72;;;24.84;58.21
51123;BME280;37162;41.724;13.346;2022-07-19T02:26:41;96979.56;;;24.84;58.79
51123;BME280;37162;41.724;13.346;2022-07-19T02:29:06;96985.81;;;24.85;59.11
51123;BME280;37162;41.724;13.346;2022-07-19T02:31:32;96966.28;;;24.72;58.71
51123;BME280;37162;41.724;13.346;2022-07-19T02:33:58;96982.53;;;24.83;58.74
51123;BME280;37162;41.724;13.346;2022-07-19T02:36:23;96984.44;;;24.82;58.86
51123;BME280;37162;41.724;13.346;2022-07-19T02:38:48;96989.34;;;24.85;59.11
51123;BME280;37162;41.724;13.346;2022-07-19T02:41:14;96987.72;;;24.79;58.93
51123;BME280;37162;41.724;13.346;2022-07-19T02:43:40;96991.25;;;24.85;59.08
51123;BME280;37162;41.724;13.346;2022-07-19T02:46:06;96988.78;;;24.83;58.73
51123;BME280;37162;41.724;13.346;2022-07-19T02:48:31;96986.88;;;24.84;58.71
51123;BME280;37162;41.724;13.346;2022-07-19T02:50:57;96990.69;;;24.83;58.42
51123;BME280;37162;41.724;13.346;2022-07-19T02:53:23;96990.44;;;24.84;58.34
51123;BME280;37162;41.724;13.346;2022-07-19T02:55:49;96988.78;;;24.83;58.75
51123;BME280;37162;41.724;13.346;2022-07-19T02:58:15;96984.19;;;24.79;58.50
51123;BME280;37162;41.724;13.346;2022-07-19T03:00:41;96993.41;;;24.83;58.73
51123;BME280;37162;41.724;13.346;2022-07-19T03:03:06;96995.03;;;24.84;58.96
51123;BME280;37162;41.724;13.346;2022-07-19T03:05:50;96996.94;;;24.83;58.89
51123;BME280;37162;41.724;13.346;2022-07-19T03:08:16;96990.69;;;24.83;58.92
51123;BME280;37162;41.724;13.346;2022-07-19T03:10:43;96987.97;;;24.83;59.00
51123;BME280;37162;41.724;13.346;2022-07-19T03:13:08;96992.59;;;24.82;58.66
51123;BME280;37162;41.724;13.346;2022-07-19T03:15:37;96994.22;;;24.83;58.85
51123;BME280;37162;41.724;13.346;2022-07-19T03:18:03;96994.50;;;24.82;58.77
51123;BME280;37162;41.724;13.346;2022-07-19T03:20:29;96990.97;;;24.81;58.43
51123;BME280;37162;41.724;13.346;2022-07-19T03:22:54;96986.38;;;24.77;58.54
51123;BME280;37162;41.724;13.346;2022-07-19T03:25:20;96999.44;;;24.80;58.37
51123;BME280;37162;41.724;13.346;2022-07-19T03:27:45;96994.00;;;24.80;58.75
51123;BME280;37162;41.724;13.346;2022-07-19T03:30:11;96994.78;;;24.80;58.91
51123;BME280;37162;41.724;13.346;2022-07-19T03:32:36;96999.44;;;24.80;58.81
51123;BME280;37162;41.724;13.346;2022-07-19T03:35:01;96988.81;;;24.78;58.80
51123;BME280;37162;41.724;13.346;2022-07-19T03:37:27;96997.50;;;24.80;59.17
51123;BME280;37162;41.724;13.346;2022-07-19T03:39:52;96992.34;;;24.73;59.08
51123;BME280;37162;41.724;13.346;2022-07-19T03:42:18;97005.94;;;24.79;58.94
51123;BME280;37162;41.724;13.346;2022-07-19T03:44:43;97002.41;;;24.78;58.83
51123;BME280;37162;41.724;13.346;2022-07-19T03:47:08;97000.78;;;24.77;58.37
51123;BME280;37162;41.724;13.346;2022-07-19T03:49:34;97006.22;;;24.77;58.56
51123;BME280;37162;41.724;13.346;2022-07-19T03:51:59;97011.66;;;24.77;58.74
51123;BME280;37162;41.724;13.346;2022-07-19T03:54:25;97010.84;;;24.77;58.50
51123;BME280;37162;41.724;13.346;2022-07-19T03:56:50;97017.91;;;24.78;58.44
51123;BME280;37162;41.724;13.346;2022-07-19T03:59:16;97016.28;;;24.77;58.63
51123;BME280;37162;41.724;13.346;2022-07-19T04:01:41;97021.72;;;24.77;58.66
51123;BME280;37162;41.724;13.346;2022-07-19T04:04:06;97022.50;;;24.77;58.68
51123;BME280;37162;41.724;13.346;2022-07-19T04:06:32;97025.22;;;24.77;58.80
51123;BME280;37162;41.724;13.346;2022-07-19T04:08:58;97023.63;;;24.76;59.21
51123;BME280;37162;41.724;13.346;2022-07-19T04:11:23;97025.22;;;24.77;58.69
51123;BME280;37162;41.724;13.346;2022-07-19T04:13:49;97018.19;;;24.76;58.83
51123;BME280;37162;41.724;13.346;2022-07-19T04:16:14;97025.78;;;24.74;58.22
51123;BME280;37162;41.724;13.346;2022-07-19T04:18:40;97027.16;;;24.71;58.21
51123;BME280;37162;41.724;13.346;2022-07-19T04:21:05;97029.31;;;24.74;58.22
51123;BME280;37162;41.724;13.346;2022-07-19T04:23:31;97031.22;;;24.74;58.31
51123;BME280;37162;41.724;13.346;2022-07-19T04:25:57;97034.75;;;24.74;58.30
51123;BME280;37162;41.724;13.346;2022-07-19T04:28:23;97032.88;;;24.75;58.39
51123;BME280;37162;41.724;13.346;2022-07-19T04:30:48;97026.88;;;24.73;58.62
51123;BME280;37162;41.724;13.346;2022-07-19T04:33:15;97022.81;;;24.76;58.73
51123;BME280;37162;41.724;13.346;2022-07-19T04:35:41;97024.72;;;24.75;58.85
51123;BME280;37162;41.724;13.346;2022-07-19T04:38:07;97014.41;;;24.67;58.56
51123;BME280;37162;41.724;13.346;2022-07-19T04:40:32;97030.66;;;24.77;58.87
51123;BME280;37162;41.724;13.346;2022-07-19T04:42:58;97023.06;;;24.69;58.33
51123;BME280;37162;41.724;13.346;2022-07-19T04:45:23;97027.94;;;24.77;58.35
51123;BME280;37162;41.724;13.346;2022-07-19T04:47:49;97036.09;;;24.77;58.16
51123;BME280;37162;41.724;13.346;2022-07-19T04:50:14;97031.75;;;24.76;57.76
51123;BME280;37162;41.724;13.346;2022-07-19T04:52:40;97034.19;;;24.78;57.75
51123;BME280;37162;41.724;13.346;2022-07-19T04:55:06;97033.91;;;24.79;57.36
51123;BME280;37162;41.724;13.346;2022-07-19T04:57:31;97032.84;;;24.80;57.72
51123;BME280;37162;41.724;13.346;2022-07-19T04:59:56;97034.47;;;24.81;57.61
51123;BME280;37162;41.724;13.346;2022-07-19T05:02:22;97023.88;;;24.74;57.51
51123;BME280;37162;41.724;13.346;2022-07-19T05:04:50;97029.03;;;24.76;57.68
51123;BME280;37162;41.724;13.346;2022-07-19T05:07:16;97043.44;;;24.82;57.11
51123;BME280;37162;41.724;13.346;2022-07-19T05:09:42;97041.53;;;24.82;57.45
51123;BME280;37162;41.724;13.346;2022-07-19T05:12:08;97042.06;;;24.84;57.46
51123;BME280;37162;41.724;13.346;2022-07-19T05:14:34;97045.34;;;24.81;56.94
51123;BME280;37162;41.724;13.346;2022-07-19T05:17:00;97051.28;;;24.83;56.48
51123;BME280;37162;41.724;13.346;2022-07-19T05:19:25;97047.75;;;24.83;55.88
51123;BME280;37162;41.724;13.346;2022-07-19T05:21:51;97040.72;;;24.77;56.28
51123;BME280;37162;41.724;13.346;2022-07-19T05:24:16;97051.28;;;24.83;55.47
51123;BME280;37162;41.724;13.346;2022-07-19T05:26:42;97049.13;;;24.85;56.19
51123;BME280;37162;41.724;13.346;2022-07-19T05:29:08;97059.44;;;24.88;56.78
51123;BME280;37162;41.724;13.346;2022-07-19T05:31:33;97057.53;;;24.89;56.47
51123;BME280;37162;41.724;13.346;2022-07-19T05:33:59;97053.19;;;24.88;56.00
51123;BME280;37162;41.724;13.346;2022-07-19T05:36:24;97057.81;;;24.87;55.33
51123;BME280;37162;41.724;13.346;2022-07-19T05:38:49;97055.34;;;24.91;55.80
51123;BME280;37162;41.724;13.346;2022-07-19T05:41:15;97055.88;;;24.93;56.43
51123;BME280;37162;41.724;13.346;2022-07-19T05:43:42;97054.53;;;24.95;57.08
51123;BME280;37162;41.724;13.346;2022-07-19T05:46:07;97052.94;;;24.89;57.21
51123;BME280;37162;41.724;13.346;2022-07-19T05:48:33;97061.28;;;24.98;57.91
51123;BME280;37162;41.724;13.346;2022-07-19T05:50:59;97056.69;;;24.98;57.73
51123;BME280;37162;41.724;13.346;2022-07-19T05:53:25;97065.66;;;24.99;58.32
51123;BME280;37162;41.724;13.346;2022-07-19T05:55:50;97069.72;;;25.02;58.28
51123;BME280;37162;41.724;13.346;2022-07-19T05:58:16;97067.00;;;25.02;58.46
51123;BME280;37162;41.724;13.346;2022-07-19T06:00:44;97072.16;;;24.98;58.49
51123;BME280;37162;41.724;13.346;2022-07-19T06:03:30;97064.28;;;25.02;58.40
51123;BME280;37162;41.724;13.346;2022-07-19T06:05:55;97068.63;;;25.03;58.71
51123;BME280;37162;41.724;13.346;2022-07-19T06:08:21;97059.41;;;24.98;58.72
51123;BME280;37162;41.724;13.346;2022-07-19T06:10:47;97065.09;;;25.02;57.88
51123;BME280;37162;41.724;13.346;2022-07-19T06:13:12;97069.19;;;25.05;57.98
51123;BME280;37162;41.724;13.346;2022-07-19T06:15:38;97067.28;;;25.05;57.68
51123;BME280;37162;41.724;13.346;2022-07-19T06:18:03;97074.06;;;25.08;58.36
51123;BME280;37162;41.724;13.346;2022-07-19T06:20:29;97071.34;;;25.08;58.68
51123;BME280;37162;41.724;13.346;2022-07-19T06:22:54;97070.28;;;25.09;58.51
51123;BME280;37162;41.724;13.346;2022-07-19T06:25:20;97065.66;;;25.09;58.36
51123;BME280;37162;41.724;13.346;2022-07-19T06:27:45;97073.53;;;25.11;58.10
51123;BME280;37162;41.724;13.346;2022-07-19T06:30:11;97065.38;;;25.11;58.11
51123;BME280;37162;41.724;13.346;2022-07-19T06:32:36;97072.72;;;25.10;56.79
51123;BME280;37162;41.724;13.346;2022-07-19T06:35:02;97056.94;;;25.07;56.94
51123;BME280;37162;41.724;13.346;2022-07-19T06:37:27;97070.53;;;25.12;56.56
51123;BME280;37162;41.724;13.346;2022-07-19T06:39:53;97056.41;;;25.10;57.51
51123;BME280;37162;41.724;13.346;2022-07-19T06:42:18;97060.72;;;25.16;57.44
51123;BME280;37162;41.724;13.346;2022-07-19T06:44:44;97057.19;;;25.16;58.08
51123;BME280;37162;41.724;13.346;2022-07-19T06:47:09;97060.47;;;25.18;57.77
51123;BME280;37162;41.724;13.346;2022-07-19T06:49:35;97057.44;;;25.19;58.62
51123;BME280;37162;41.724;13.346;2022-07-19T06:52:00;97062.06;;;25.19;58.28
51123;BME280;37162;41.724;13.346;2022-07-19T06:54:27;97055.56;;;25.15;58.09
51123;BME280;37162;41.724;13.346;2022-07-19T06:56:52;97044.16;;;25.13;58.22
51123;BME280;37162;41.724;13.346;2022-07-19T06:59:19;97070.50;;;25.22;58.56
51123;BME280;37162;41.724;13.346;2022-07-19T07:01:45;97059.34;;;25.24;59.00
51123;BME280;37162;41.724;13.346;2022-07-19T07:04:10;97058.53;;;25.23;59.15
51123;BME280;37162;41.724;13.346;2022-07-19T07:06:35;97062.06;;;25.24;59.47
51123;BME280;37162;41.724;13.346;2022-07-19T07:09:01;97060.16;;;25.24;59.17
51123;BME280;37162;41.724;13.346;2022-07-19T07:11:27;97065.59;;;25.24;59.64
51123;BME280;37162;41.724;13.346;2022-07-19T07:13:53;97062.88;;;25.24;59.39
51123;BME280;37162;41.724;13.346;2022-07-19T07:16:18;97057.44;;;25.19;59.52
51123;BME280;37162;41.724;13.346;2022-07-19T07:18:44;97062.88;;;25.24;59.75
51123;BME280;37162;41.724;13.346;2022-07-19T07:21:10;97054.44;;;25.21;58.46
51123;BME280;37162;41.724;13.346;2022-07-19T07:23:35;97062.56;;;25.26;59.35
51123;BME280;37162;41.724;13.346;2022-07-19T07:26:01;97053.38;;;25.22;59.47
51123;BME280;37162;41.724;13.346;2022-07-19T07:28:26;97054.41;;;25.26;59.70
51123;BME280;37162;41.724;13.346;2022-07-19T07:30:52;97056.06;;;25.27;59.75
51123;BME280;37162;41.724;13.346;2022-07-19T07:33:17;97052.78;;;25.25;58.16
51123;BME280;37162;41.724;13.346;2022-07-19T07:35:43;97049.53;;;25.28;58.05
51123;BME280;37162;41.724;13.346;2022-07-19T07:38:08;97049.78;;;25.32;59.11
51123;BME280;37162;41.724;13.346;2022-07-19T07:40:33;97047.88;;;25.32;58.80
51123;BME280;37162;41.724;13.346;2022-07-19T07:42:59;97046.22;;;25.31;59.12
51123;BME280;37162;41.724;13.346;2022-07-19T07:45:24;97042.44;;;25.32;59.22
51123;BME280;37162;41.724;13.346;2022-07-19T07:47:50;97045.72;;;25.29;59.19
51123;BME280;37162;41.724;13.346;2022-07-19T07:50:15;97049.50;;;25.33;59.35
51123;BME280;37162;41.724;13.346;2022-07-19T07:52:41;97049.50;;;25.33;59.43
51123;BME280;37162;41.724;13.346;2022-07-19T07:55:07;97048.69;;;25.33;59.13
51123;BME280;37162;41.724;13.346;2022-07-19T07:57:32;97044.88;;;25.34;59.36
51123;BME280;37162;41.724;13.346;2022-07-19T07:59:58;97049.50;;;25.33;59.46
51123;BME280;37162;41.724;13.346;2022-07-19T08:02:23;97045.16;;;25.32;59.17
51123;BME280;37162;41.724;13.346;2022-07-19T08:04:48;97047.59;;;25.34;59.60
51123;BME280;37162;41.724;13.346;2022-07-19T08:07:14;97044.88;;;25.34;59.32
51123;BME280;37162;41.724;13.346;2022-07-19T08:09:39;97037.25;;;25.31;59.50
51123;BME280;37162;41.724;13.346;2022-07-19T08:12:05;97048.09;;;25.36;58.67
51123;BME280;37162;41.724;13.346;2022-07-19T08:14:30;97046.72;;;25.43;58.34
51123;BME280;37162;41.724;13.346;2022-07-19T08:16:56;97044.25;;;25.47;58.83
51123;BME280;37162;41.724;13.346;2022-07-19T08:19:22;97048.31;;;25.49;58.79
51123;BME280;37162;41.724;13.346;2022-07-19T08:21:47;97045.06;;;25.47;58.91
51123;BME280;37162;41.724;13.346;2022-07-19T08:24:13;97049.41;;;25.48;58.90
51123;BME280;37162;41.724;13.346;2022-07-19T08:26:38;97043.97;;;25.48;59.15
51123;BME280;37162;41.724;13.346;2022-07-19T08:29:04;97040.72;;;25.46;58.93
51123;BME280;37162;41.724;13.346;2022-07-19T08:31:29;97046.16;;;25.46;58.92
51123;BME280;37162;41.724;13.346;2022-07-19T08:33:55;97047.28;;;25.45;58.84
51123;BME280;37162;41.724;13.346;2022-07-19T08:36:20;97046.97;;;25.47;58.97
51123;BME280;37162;41.724;13.346;2022-07-19T08:38:46;97035.31;;;25.41;59.01
51123;BME280;37162;41.724;13.346;2022-07-19T08:41:13;97039.38;;;25.44;59.08
51123;BME280;37162;41.724;13.346;2022-07-19T08:43:38;97043.44;;;25.46;59.10
51123;BME280;37162;41.724;13.346;2022-07-19T08:46:04;97037.19;;;25.46;59.09
51123;BME280;37162;41.724;13.346;2022-07-19T08:48:31;97045.06;;;25.47;59.06
51123;BME280;37162;41.724;13.346;2022-07-19T08:50:59;97042.34;;;25.47;59.26
51123;BME280;37162;41.724;13.346;2022-07-19T08:53:24;97030.44;;;25.38;59.19
51123;BME280;37162;41.724;13.346;2022-07-19T08:55:53;97045.88;;;25.48;59.32
51123;BME280;37162;41.724;13.346;2022-07-19T08:58:19;97036.63;;;25.49;59.31
51123;BME280;37162;41.724;13.346;2022-07-19T09:00:44;97044.50;;;25.51;59.16
51123;BME280;37162;41.724;13.346;2022-07-19T09:03:10;97046.13;;;25.52;59.01
51123;BME280;37162;41.724;13.346;2022-07-19T09:05:35;97039.06;;;25.51;58.20
51123;BME280;37162;41.724;13.346;2022-07-19T09:08:15;97041.22;;;25.54;58.74
51123;BME280;37162;41.724;13.346;2022-07-19T09:10:46;97037.38;;;25.55;59.13
51123;BME280;37162;41.724;13.346;2022-07-19T09:13:31;97034.41;;;25.56;58.98
51123;BME280;37162;41.724;13.346;2022-07-19T09:15:56;97041.75;;;25.56;58.48
51123;BME280;37162;41.724;13.346;2022-07-19T09:18:24;97042.81;;;25.60;58.81
51123;BME280;37162;41.724;13.346;2022-07-19T09:20:56;97028.16;;;25.56;58.70
51123;BME280;37162;41.724;13.346;2022-07-19T09:23:22;97035.19;;;25.62;58.74
51123;BME280;37162;41.724;13.346;2022-07-19T09:25:51;96997.22;;;25.41;58.82
51123;BME280;37162;41.724;13.346;2022-07-19T09:28:19;97030.53;;;25.62;57.79
51123;BME280;37162;41.724;13.346;2022-07-19T09:30:49;97031.31;;;25.68;58.47
51123;BME280;37162;41.724;13.346;2022-07-19T09:33:17;97031.88;;;25.70;58.59
51123;BME280;37162;41.724;13.346;2022-07-19T09:35:44;97029.63;;;25.82;56.66
51123;BME280;37162;41.724;13.346;2022-07-19T09:38:32;97029.09;;;26.14;55.11
51123;BME280;37162;41.724;13.346;2022-07-19T09:48:53;97018.72;;;26.74;54.97
51123;BME280;37162;41.724;13.346;2022-07-19T09:51:20;97023.47;;;26.64;55.32
51123;BME280;37162;41.724;13.346;2022-07-19T09:53:46;97028.19;;;26.53;55.38
51123;BME280;37162;41.724;13.346;2022-07-19T09:56:13;97023.41;;;26.45;55.75
51123;BME280;37162;41.724;13.346;2022-07-19T09:58:41;97016.16;;;26.30;56.01
51123;BME280;37162;41.724;13.346;2022-07-19T10:01:07;97018.28;;;26.33;56.19
51123;BME280;37162;41.724;13.346;2022-07-19T10:03:33;97019.16;;;26.29;56.42
51123;BME280;37162;41.724;13.346;2022-07-19T10:05:59;97021.63;;;26.25;56.39
51123;BME280;37162;41.724;13.346;2022-07-19T10:08:24;97025.47;;;26.24;56.38
51123;BME280;37162;41.724;13.346;2022-07-19T10:10:51;96995.09;;;26.12;56.65
51123;BME280;37162;41.724;13.346;2022-07-19T10:13:16;97008.06;;;26.20;56.47
51123;BME280;37162;41.724;13.346;2022-07-19T10:15:46;97008.88;;;26.20;56.71
51123;BME280;37162;41.724;13.346;2022-07-19T10:18:17;97013.50;;;26.20;56.82
51123;BME280;37162;41.724;13.346;2022-07-19T10:20:46;97015.41;;;26.19;56.88
51123;BME280;37162;41.724;13.346;2022-07-19T10:23:12;97011.06;;;26.18;56.79
51123;BME280;37162;41.724;13.346;2022-07-19T10:25:41;97003.72;;;26.19;57.00
51123;BME280;37162;41.724;13.346;2022-07-19T10:28:35;97006.44;;;26.19;56.77
51123;BME280;37162;41.724;13.346;2022-07-19T10:31:01;97002.91;;;26.18;56.86
51123;BME280;37162;41.724;13.346;2022-07-19T10:33:32;97002.91;;;26.18;56.78
51123;BME280;37162;41.724;13.346;2022-07-19T10:36:30;97001.00;;;26.19;56.74
51123;BME280;37162;41.724;13.346;2022-07-19T10:39:19;97008.06;;;26.20;56.92
51123;BME280;37162;41.724;13.346;2022-07-19T10:42:07;96999.06;;;26.19;56.90
51123;BME280;37162;41.724;13.346;2022-07-19T10:44:34;97001.00;;;26.19;56.95
51123;BME280;37162;41.724;13.346;2022-07-19T10:47:00;96996.34;;;26.19;56.90
51123;BME280;37162;41.724;13.346;2022-07-19T10:49:45;96989.81;;;26.20;57.00
51123;BME280;37162;41.724;13.346;2022-07-19T10:52:38;96986.06;;;26.16;56.75
51123;BME280;37162;41.724;13.346;2022-07-19T11:00:28;96968.66;;;26.12;56.88
51123;BME280;37162;41.724;13.346;2022-07-19T11:05:50;96972.66;;;26.20;56.76
51123;BME280;37162;41.724;13.346;2022-07-19T11:08:16;96982.97;;;26.23;56.70
51123;BME280;37162;41.724;13.346;2022-07-19T11:10:42;96975.91;;;26.22;56.79
51123;BME280;37162;41.724;13.346;2022-07-19T11:13:07;96971.28;;;26.22;56.95
51123;BME280;37162;41.724;13.346;2022-07-19T11:15:42;96963.97;;;26.18;56.73
51123;BME280;37162;41.724;13.346;2022-07-19T11:18:18;96967.75;;;26.22;56.77
51123;BME280;37162;41.724;13.346;2022-07-19T11:20:43;96955.22;;;26.21;56.76
51123;BME280;37162;41.724;13.346;2022-07-19T11:23:17;96958.47;;;26.23;56.94
51123;BME280;37162;41.724;13.346;2022-07-19T11:25:43;96954.13;;;26.22;56.79
51123;BME280;37162;41.724;13.346;2022-07-19T11:28:25;96948.69;;;26.22;57.04
51123;BME280;37162;41.724;13.346;2022-07-19T11:30:51;96933.78;;;26.14;56.73
51123;BME280;37162;41.724;13.346;2022-07-19T11:33:19;96938.59;;;26.22;56.81
51123;BME280;37162;41.724;13.346;2022-07-19T11:35:54;96948.69;;;26.22;56.66
51123;BME280;37162;41.724;13.346;2022-07-19T11:38:20;96935.06;;;26.22;56.67
51123;BME280;37162;41.724;13.346;2022-07-19T11:40:45;96936.16;;;26.21;56.85
51123;BME280;37162;41.724;13.346;2022-07-19T11:43:11;96939.69;;;26.21;56.95
51123;BME280;37162;41.724;13.346;2022-07-19T11:45:48;96932.59;;;26.20;56.94
51123;BME280;37162;41.724;13.346;2022-07-19T11:48:26;96922.63;;;26.11;56.71
51123;BME280;37162;41.724;13.346;2022-07-19T11:51:07;96929.38;;;26.18;56.90
51123;BME280;37162;41.724;13.346;2022-07-19T11:53:34;96924.72;;;26.19;56.80
51123;BME280;37162;41.724;13.346;2022-07-19T11:56:00;96921.19;;;26.18;56.95
51123;BME280;37162;41.724;13.346;2022-07-19T11:58:26;96917.66;;;26.18;56.95
51123;BME280;37162;41.724;13.346;2022-07-19T12:00:52;96917.66;;;26.18;56.86
51123;BME280;37162;41.724;13.346;2022-07-19T12:03:24;96920.69;;;26.16;56.94
51123;BME280;37162;41.724;13.346;2022-07-19T12:05:59;96909.25;;;26.14;56.76
51123;BME280;37162;41.724;13.346;2022-07-19T12:08:42;96908.44;;;26.14;56.74
51123;BME280;37162;41.724;13.346;2022-07-19T12:11:19;96901.91;;;26.15;56.77
51123;BME280;37162;41.724;13.346;2022-07-19T12:13:45;96904.69;;;26.10;56.88
51123;BME280;37162;41.724;13.346;2022-07-19T12:16:11;96909.56;;;26.13;56.88
51123;BME280;37162;41.724;13.346;2022-07-19T12:18:46;96905.22;;;26.12;56.88
51123;BME280;37162;41.724;13.346;2022-07-19T12:23:40;96907.94;;;26.12;56.96
51123;BME280;37162;41.724;13.346;2022-07-19T12:26:06;96906.84;;;26.13;56.89
51123;BME280;37162;41.724;13.346;2022-07-19T12:28:32;96897.38;;;26.05;56.76
51123;BME280;37162;41.724;13.346;2022-07-19T12:31:05;96906.03;;;26.12;56.75
51123;BME280;37162;41.724;13.346;2022-07-19T12:33:31;96894.31;;;26.12;56.83
51123;BME280;37162;41.724;13.346;2022-07-19T12:35:57;96898.66;;;26.13;56.84
51123;BME280;37162;41.724;13.346;2022-07-19T12:38:32;96895.13;;;26.12;56.64
51123;BME280;37162;41.724;13.346;2022-07-19T12:41:07;96884.81;;;26.09;56.79
51123;BME280;37162;41.724;13.346;2022-07-19T12:43:33;96888.56;;;26.13;56.68
51123;BME280;37162;41.724;13.346;2022-07-19T12:45:59;96888.88;;;26.12;56.92
51123;BME280;37162;41.724;13.346;2022-07-19T12:48:27;96885.34;;;26.11;56.81
51123;BME280;37162;41.724;13.346;2022-07-19T12:50:52;96890.78;;;26.11;57.17
51123;BME280;37162;41.724;13.346;2022-07-19T12:53:18;96890.56;;;26.08;56.78
51123;BME280;37162;41.724;13.346;2022-07-19T12:55:44;96883.19;;;26.08;56.79
51123;BME280;37162;41.724;13.346;2022-07-19T12:58:10;96878.03;;;26.07;56.80
51123;BME280;37162;41.724;13.346;2022-07-19T13:00:37;96879.13;;;26.06;56.86
51123;BME280;37162;41.724;13.346;2022-07-19T13:03:03;96883.75;;;26.05;56.68
51123;BME280;37162;41.724;13.346;2022-07-19T13:05:30;96883.75;;;26.05;56.74
51123;BME280;37162;41.724;13.346;2022-07-19T13:07:56;96856.66;;;25.95;56.91